LEPA/PMI METAR and TAF weather

Enter ICAO airport designator
Station Type Date Time Source
LEPA METAR 2019/06/27 04:00 UTC NOAA

LEPA 270400Z 08005KT 060V120 CAVOK 23/17 Q1018 NOSIG


Station Type Date Time Source
LEPA Decoded METAR 2019/06/27 04:00 UTC NOAA

Palma De Mallorca / Son San Juan, Spain (LEPA) 39-33N 002-44E 8M
Jun 27, 2019 - 12:00 AM EDT / 2019.06.27 0400 UTC
Wind: from the E (080 degrees) at 6 MPH (5 KT) (direction variable):0
Visibility: greater than 7 mile(s):0
Temperature: 73 F (23 C)
Dew Point: 62 F (17 C)
Relative Humidity: 68%
Pressure (altimeter): 30.06 in. Hg (1018 hPa)
ob: LEPA 270400Z 08005KT 060V120 CAVOK 23/17 Q1018 NOSIG
cycle: 4

Station Type Date Time Source
LEPA TAF 2019/06/26 18:27 UTC NOAA

TAF TAF LEPA 261700Z 2618/2718 11012KT CAVOK TX37/2712Z TN22/2706Z
BECMG 2618/2620 05007KT
BECMG 2713/2715 23010KT

Example: see airport list